Terminal Aerodrome Forecast
Issued by NWS

Home | Current Version | Previous Version | Text Only | Print | Product List | Glossary On
Versions: 1 2 3 4 5 6 7 8 9 10 11 12 13 14 15 16 17
218
FTUS41 KPBZ 271140
TAFHLG
TAF
KHLG 271140Z 2712/2812 18007KT P6SM SCT015 OVC060
      TEMPO 2712/2713 BKN015
     FM271600 22008KT P6SM SCT040
     FM280900 18003KT 5SM -SHRA OVC035=

USA.gov is the U.S. government's official web portal to all federal, state and local government web resources and services.